Sagrada, Missouri
Current Conditions -  °F | °C
As of 2:35 AM on Friday 19 Dec 2014 (Local Time) from KH21 Reporting Station
Haze Haze  
Wind Chill: 34°   Ceiling: 300
Heat Index: 34°   Visibility: 0.75mi
Dew Point: 34°   Wind: 0mph
Humidity: 100%   Direction: NA
Pressure: 30.24"   Gusts: NA
Location:  38.1656°N, 93.1481°W
Report Text: KH21 190835Z AUTO 00000KT 3/4SM BR OVC003 01/01 A3024 RMK AO2
Loading
Personal Weather Stations






























Interactive Weather Map New forecast layout! Learn more

10-Day Weather Forecast

Advertisements
Track Severe Weather on mobile